sensor_id;sensor_type;location;lat;lon;timestamp;P1;durP1;ratioP1;P2;durP2;ratioP2
22026;SDS011;11177;50.966;10.070;2024-03-02T00:01:07;45.38;;;22.98;;
22026;SDS011;11177;50.966;10.070;2024-03-02T00:03:37;42.55;;;22.88;;
22026;SDS011;11177;50.966;10.070;2024-03-02T00:06:05;40.85;;;22.55;;
22026;SDS011;11177;50.966;10.070;2024-03-02T00:08:32;45.47;;;22.77;;
22026;SDS011;11177;50.966;10.070;2024-03-02T00:10:59;40.72;;;22.08;;
22026;SDS011;11177;50.966;10.070;2024-03-02T00:13:27;42.90;;;22.75;;
22026;SDS011;11177;50.966;10.070;2024-03-02T00:15:54;40.85;;;21.95;;
22026;SDS011;11177;50.966;10.070;2024-03-02T00:21:09;42.80;;;22.60;;
22026;SDS011;11177;50.966;10.070;2024-03-02T00:23:36;39.60;;;22.52;;
22026;SDS011;11177;50.966;10.070;2024-03-02T00:26:03;44.47;;;22.33;;
22026;SDS011;11177;50.966;10.070;2024-03-02T00:28:36;42.78;;;22.88;;
22026;SDS011;11177;50.966;10.070;2024-03-02T00:31:06;40.92;;;22.15;;
22026;SDS011;11177;50.966;10.070;2024-03-02T00:33:35;40.15;;;21.35;;
22026;SDS011;11177;50.966;10.070;2024-03-02T00:36:04;42.38;;;22.40;;
22026;SDS011;11177;50.966;10.070;2024-03-02T00:38:32;41.42;;;22.23;;
22026;SDS011;11177;50.966;10.070;2024-03-02T00:41:00;44.53;;;22.98;;
22026;SDS011;11177;50.966;10.070;2024-03-02T00:43:41;40.63;;;22.65;;
22026;SDS011;11177;50.966;10.070;2024-03-02T00:46:20;42.67;;;22.65;;
22026;SDS011;11177;50.966;10.070;2024-03-02T00:48:54;39.33;;;21.92;;
22026;SDS011;11177;50.966;10.070;2024-03-02T00:51:23;43.47;;;22.15;;
22026;SDS011;11177;50.966;10.070;2024-03-02T00:53:52;40.00;;;22.05;;
22026;SDS011;11177;50.966;10.070;2024-03-02T00:56:19;47.25;;;22.35;;
22026;SDS011;11177;50.966;10.070;2024-03-02T00:58:50;41.95;;;22.48;;
22026;SDS011;11177;50.966;10.070;2024-03-02T01:01:19;40.80;;;21.63;;
22026;SDS011;11177;50.966;10.070;2024-03-02T01:03:46;41.90;;;22.08;;
22026;SDS011;11177;50.966;10.070;2024-03-02T01:06:14;39.55;;;21.40;;
22026;SDS011;11177;50.966;10.070;2024-03-02T01:08:41;43.63;;;22.23;;
22026;SDS011;11177;50.966;10.070;2024-03-02T01:11:08;37.65;;;21.08;;
22026;SDS011;11177;50.966;10.070;2024-03-02T01:13:36;42.05;;;22.10;;
22026;SDS011;11177;50.966;10.070;2024-03-02T01:16:03;38.97;;;22.30;;
22026;SDS011;11177;50.966;10.070;2024-03-02T01:18:30;41.10;;;21.48;;
22026;SDS011;11177;50.966;10.070;2024-03-02T01:20:57;44.72;;;21.83;;
22026;SDS011;11177;50.966;10.070;2024-03-02T01:23:25;41.47;;;22.38;;
22026;SDS011;11177;50.966;10.070;2024-03-02T01:25:52;43.28;;;22.20;;
22026;SDS011;11177;50.966;10.070;2024-03-02T01:28:19;40.92;;;21.75;;
22026;SDS011;11177;50.966;10.070;2024-03-02T01:30:49;40.85;;;21.80;;
22026;SDS011;11177;50.966;10.070;2024-03-02T01:33:17;39.13;;;21.15;;
22026;SDS011;11177;50.966;10.070;2024-03-02T01:35:44;39.20;;;20.92;;
22026;SDS011;11177;50.966;10.070;2024-03-02T01:38:12;42.03;;;21.10;;
22026;SDS011;11177;50.966;10.070;2024-03-02T01:40:39;39.13;;;20.98;;
22026;SDS011;11177;50.966;10.070;2024-03-02T01:43:06;41.17;;;21.30;;
22026;SDS011;11177;50.966;10.070;2024-03-02T01:45:34;39.50;;;21.27;;
22026;SDS011;11177;50.966;10.070;2024-03-02T01:48:03;42.58;;;21.98;;
22026;SDS011;11177;50.966;10.070;2024-03-02T01:50:32;39.90;;;21.80;;
22026;SDS011;11177;50.966;10.070;2024-03-02T01:53:00;37.40;;;21.48;;
22026;SDS011;11177;50.966;10.070;2024-03-02T01:55:27;41.75;;;21.65;;
22026;SDS011;11177;50.966;10.070;2024-03-02T01:57:57;37.33;;;20.80;;
22026;SDS011;11177;50.966;10.070;2024-03-02T02:00:25;39.22;;;21.08;;
22026;SDS011;11177;50.966;10.070;2024-03-02T02:02:54;44.00;;;21.73;;
22026;SDS011;11177;50.966;10.070;2024-03-02T02:05:21;38.13;;;20.58;;
22026;SDS011;11177;50.966;10.070;2024-03-02T02:07:49;36.08;;;20.65;;
22026;SDS011;11177;50.966;10.070;2024-03-02T02:10:16;39.97;;;20.75;;
22026;SDS011;11177;50.966;10.070;2024-03-02T02:12:43;37.10;;;19.77;;
22026;SDS011;11177;50.966;10.070;2024-03-02T02:15:23;38.72;;;20.45;;
22026;SDS011;11177;50.966;10.070;2024-03-02T02:17:54;40.60;;;20.38;;
22026;SDS011;11177;50.966;10.070;2024-03-02T02:20:22;38.95;;;21.35;;
22026;SDS011;11177;50.966;10.070;2024-03-02T02:22:59;36.25;;;20.10;;
22026;SDS011;11177;50.966;10.070;2024-03-02T02:25:28;40.67;;;20.88;;
22026;SDS011;11177;50.966;10.070;2024-03-02T02:27:56;38.60;;;20.92;;
22026;SDS011;11177;50.966;10.070;2024-03-02T02:30:28;38.13;;;20.83;;
22026;SDS011;11177;50.966;10.070;2024-03-02T02:32:56;37.95;;;20.33;;
22026;SDS011;11177;50.966;10.070;2024-03-02T02:35:24;39.40;;;21.45;;
22026;SDS011;11177;50.966;10.070;2024-03-02T02:37:51;39.85;;;20.02;;
22026;SDS011;11177;50.966;10.070;2024-03-02T02:40:19;39.45;;;20.67;;
22026;SDS011;11177;50.966;10.070;2024-03-02T02:42:46;39.50;;;20.63;;
22026;SDS011;11177;50.966;10.070;2024-03-02T02:45:13;37.38;;;20.35;;
22026;SDS011;11177;50.966;10.070;2024-03-02T02:47:42;37.60;;;20.40;;
22026;SDS011;11177;50.966;10.070;2024-03-02T02:50:09;40.85;;;20.23;;
22026;SDS011;11177;50.966;10.070;2024-03-02T02:52:37;37.35;;;19.55;;
22026;SDS011;11177;50.966;10.070;2024-03-02T02:55:07;37.15;;;20.17;;
22026;SDS011;11177;50.966;10.070;2024-03-02T02:57:35;41.85;;;19.38;;
22026;SDS011;11177;50.966;10.070;2024-03-02T03:00:14;36.15;;;20.27;;
22026;SDS011;11177;50.966;10.070;2024-03-02T03:02:47;38.50;;;19.98;;
22026;SDS011;11177;50.966;10.070;2024-03-02T03:05:17;39.50;;;19.50;;
22026;SDS011;11177;50.966;10.070;2024-03-02T03:07:44;39.42;;;20.75;;
22026;SDS011;11177;50.966;10.070;2024-03-02T03:10:12;40.03;;;21.17;;
22026;SDS011;11177;50.966;10.070;2024-03-02T03:12:41;36.70;;;20.00;;
22026;SDS011;11177;50.966;10.070;2024-03-02T03:15:10;36.10;;;20.70;;
22026;SDS011;11177;50.966;10.070;2024-03-02T03:17:38;40.13;;;19.65;;
22026;SDS011;11177;50.966;10.070;2024-03-02T03:20:05;37.85;;;21.13;;
22026;SDS011;11177;50.966;10.070;2024-03-02T03:22:37;36.03;;;19.27;;
22026;SDS011;11177;50.966;10.070;2024-03-02T03:25:05;42.47;;;21.13;;
22026;SDS011;11177;50.966;10.070;2024-03-02T03:27:35;38.65;;;20.23;;
22026;SDS011;11177;50.966;10.070;2024-03-02T03:30:03;36.67;;;20.90;;
22026;SDS011;11177;50.966;10.070;2024-03-02T03:32:30;38.97;;;19.52;;
22026;SDS011;11177;50.966;10.070;2024-03-02T03:34:57;38.63;;;21.35;;
22026;SDS011;11177;50.966;10.070;2024-03-02T03:37:24;40.30;;;20.35;;
22026;SDS011;11177;50.966;10.070;2024-03-02T03:39:53;37.55;;;20.55;;
22026;SDS011;11177;50.966;10.070;2024-03-02T03:42:20;42.25;;;20.67;;
22026;SDS011;11177;50.966;10.070;2024-03-02T03:44:47;41.50;;;21.42;;
22026;SDS011;11177;50.966;10.070;2024-03-02T03:47:14;42.70;;;22.30;;
22026;SDS011;11177;50.966;10.070;2024-03-02T03:49:41;41.70;;;22.13;;
22026;SDS011;11177;50.966;10.070;2024-03-02T03:52:08;42.28;;;22.35;;
22026;SDS011;11177;50.966;10.070;2024-03-02T03:54:35;45.20;;;22.27;;
22026;SDS011;11177;50.966;10.070;2024-03-02T03:57:04;41.78;;;21.35;;
22026;SDS011;11177;50.966;10.070;2024-03-02T03:59:31;41.35;;;21.95;;
22026;SDS011;11177;50.966;10.070;2024-03-02T04:01:58;37.20;;;20.73;;
22026;SDS011;11177;50.966;10.070;2024-03-02T04:04:25;42.00;;;22.50;;
22026;SDS011;11177;50.966;10.070;2024-03-02T04:06:52;41.38;;;21.67;;
22026;SDS011;11177;50.966;10.070;2024-03-02T04:09:19;43.22;;;22.05;;
22026;SDS011;11177;50.966;10.070;2024-03-02T04:11:46;40.25;;;21.48;;
22026;SDS011;11177;50.966;10.070;2024-03-02T04:14:13;38.65;;;21.27;;
22026;SDS011;11177;50.966;10.070;2024-03-02T04:16:40;41.22;;;21.70;;
22026;SDS011;11177;50.966;10.070;2024-03-02T04:19:07;42.30;;;21.73;;
22026;SDS011;11177;50.966;10.070;2024-03-02T04:21:34;39.83;;;21.02;;
22026;SDS011;11177;50.966;10.070;2024-03-02T04:24:01;39.58;;;21.90;;
22026;SDS011;11177;50.966;10.070;2024-03-02T04:26:28;45.95;;;20.75;;
22026;SDS011;11177;50.966;10.070;2024-03-02T04:28:55;40.92;;;21.73;;
22026;SDS011;11177;50.966;10.070;2024-03-02T04:31:22;43.40;;;21.95;;
22026;SDS011;11177;50.966;10.070;2024-03-02T04:33:49;41.63;;;22.27;;
22026;SDS011;11177;50.966;10.070;2024-03-02T04:36:16;43.63;;;23.15;;
22026;SDS011;11177;50.966;10.070;2024-03-02T04:38:43;41.67;;;22.75;;
22026;SDS011;11177;50.966;10.070;2024-03-02T04:41:10;45.38;;;22.90;;
22026;SDS011;11177;50.966;10.070;2024-03-02T04:43:37;44.47;;;22.55;;
22026;SDS011;11177;50.966;10.070;2024-03-02T04:46:04;42.85;;;22.40;;
22026;SDS011;11177;50.966;10.070;2024-03-02T04:48:33;44.05;;;22.40;;
22026;SDS011;11177;50.966;10.070;2024-03-02T04:51:00;43.05;;;21.45;;
22026;SDS011;11177;50.966;10.070;2024-03-02T04:53:27;42.85;;;22.27;;
22026;SDS011;11177;50.966;10.070;2024-03-02T04:55:55;41.10;;;21.40;;
22026;SDS011;11177;50.966;10.070;2024-03-02T04:58:45;39.90;;;20.55;;
22026;SDS011;11177;50.966;10.070;2024-03-02T05:01:12;37.10;;;19.98;;
22026;SDS011;11177;50.966;10.070;2024-03-02T05:03:39;44.30;;;21.15;;
22026;SDS011;11177;50.966;10.070;2024-03-02T05:06:06;37.17;;;20.42;;
22026;SDS011;11177;50.966;10.070;2024-03-02T05:08:35;40.75;;;20.55;;
22026;SDS011;11177;50.966;10.070;2024-03-02T05:11:02;38.65;;;20.48;;
22026;SDS011;11177;50.966;10.070;2024-03-02T05:13:52;42.25;;;20.00;;
22026;SDS011;11177;50.966;10.070;2024-03-02T05:16:19;39.60;;;20.90;;
22026;SDS011;11177;50.966;10.070;2024-03-02T05:18:47;38.42;;;20.23;;
22026;SDS011;11177;50.966;10.070;2024-03-02T05:21:13;37.10;;;19.08;;
22026;SDS011;11177;50.966;10.070;2024-03-02T05:23:41;36.30;;;18.80;;
22026;SDS011;11177;50.966;10.070;2024-03-02T05:26:13;37.53;;;18.73;;
22026;SDS011;11177;50.966;10.070;2024-03-02T05:28:48;37.05;;;19.25;;
22026;SDS011;11177;50.966;10.070;2024-03-02T05:31:15;35.50;;;18.98;;
22026;SDS011;11177;50.966;10.070;2024-03-02T05:33:50;36.22;;;18.25;;
22026;SDS011;11177;50.966;10.070;2024-03-02T05:36:22;37.70;;;19.63;;
22026;SDS011;11177;50.966;10.070;2024-03-02T05:38:49;34.25;;;19.17;;
22026;SDS011;11177;50.966;10.070;2024-03-02T05:41:16;35.83;;;18.40;;
22026;SDS011;11177;50.966;10.070;2024-03-02T05:43:43;37.17;;;19.23;;
22026;SDS011;11177;50.966;10.070;2024-03-02T05:46:10;38.25;;;20.08;;
22026;SDS011;11177;50.966;10.070;2024-03-02T05:48:46;35.35;;;18.98;;
22026;SDS011;11177;50.966;10.070;2024-03-02T05:51:15;40.45;;;18.83;;
22026;SDS011;11177;50.966;10.070;2024-03-02T05:53:42;37.58;;;19.80;;
22026;SDS011;11177;50.966;10.070;2024-03-02T05:56:09;38.65;;;19.67;;
22026;SDS011;11177;50.966;10.070;2024-03-02T05:58:36;38.58;;;19.95;;
22026;SDS011;11177;50.966;10.070;2024-03-02T06:01:22;37.28;;;19.00;;
22026;SDS011;11177;50.966;10.070;2024-03-02T06:03:55;37.97;;;20.30;;
22026;SDS011;11177;50.966;10.070;2024-03-02T06:06:23;39.88;;;19.40;;
22026;SDS011;11177;50.966;10.070;2024-03-02T06:08:50;41.75;;;20.45;;
22026;SDS011;11177;50.966;10.070;2024-03-02T06:11:20;38.97;;;20.27;;
22026;SDS011;11177;50.966;10.070;2024-03-02T06:13:48;38.92;;;20.05;;
22026;SDS011;11177;50.966;10.070;2024-03-02T06:16:15;44.08;;;21.92;;
22026;SDS011;11177;50.966;10.070;2024-03-02T06:18:42;40.53;;;20.20;;
22026;SDS011;11177;50.966;10.070;2024-03-02T06:21:09;46.30;;;21.17;;
22026;SDS011;11177;50.966;10.070;2024-03-02T06:23:36;42.78;;;21.98;;
22026;SDS011;11177;50.966;10.070;2024-03-02T06:26:03;44.88;;;22.00;;
22026;SDS011;11177;50.966;10.070;2024-03-02T06:28:30;41.92;;;22.70;;
22026;SDS011;11177;50.966;10.070;2024-03-02T06:30:57;43.75;;;22.70;;
22026;SDS011;11177;50.966;10.070;2024-03-02T06:33:24;43.40;;;21.90;;
22026;SDS011;11177;50.966;10.070;2024-03-02T06:35:52;45.17;;;21.63;;
22026;SDS011;11177;50.966;10.070;2024-03-02T06:38:19;43.60;;;22.55;;
22026;SDS011;11177;50.966;10.070;2024-03-02T06:40:50;44.03;;;22.65;;
22026;SDS011;11177;50.966;10.070;2024-03-02T06:43:20;42.78;;;21.92;;
22026;SDS011;11177;50.966;10.070;2024-03-02T06:45:50;43.00;;;22.25;;
22026;SDS011;11177;50.966;10.070;2024-03-02T06:48:18;40.20;;;20.75;;
22026;SDS011;11177;50.966;10.070;2024-03-02T06:50:50;38.25;;;19.40;;
22026;SDS011;11177;50.966;10.070;2024-03-02T06:53:17;38.88;;;20.20;;
22026;SDS011;11177;50.966;10.070;2024-03-02T06:55:46;36.38;;;19.50;;
22026;SDS011;11177;50.966;10.070;2024-03-02T06:58:13;37.17;;;19.65;;
22026;SDS011;11177;50.966;10.070;2024-03-02T07:00:42;35.78;;;20.25;;
22026;SDS011;11177;50.966;10.070;2024-03-02T07:03:11;35.83;;;19.25;;
22026;SDS011;11177;50.966;10.070;2024-03-02T07:05:39;32.78;;;19.15;;
22026;SDS011;11177;50.966;10.070;2024-03-02T07:08:06;36.75;;;18.67;;
22026;SDS011;11177;50.966;10.070;2024-03-02T07:10:37;32.67;;;16.77;;
22026;SDS011;11177;50.966;10.070;2024-03-02T07:13:06;29.37;;;16.67;;
22026;SDS011;11177;50.966;10.070;2024-03-02T07:15:33;31.13;;;17.15;;
22026;SDS011;11177;50.966;10.070;2024-03-02T07:18:03;31.30;;;15.98;;
22026;SDS011;11177;50.966;10.070;2024-03-02T07:20:31;32.28;;;18.60;;
22026;SDS011;11177;50.966;10.070;2024-03-02T07:23:00;36.17;;;22.75;;
22026;SDS011;11177;50.966;10.070;2024-03-02T07:25:30;38.40;;;23.48;;
22026;SDS011;11177;50.966;10.070;2024-03-02T07:28:00;33.97;;;20.58;;
22026;SDS011;11177;50.966;10.070;2024-03-02T07:30:27;40.17;;;20.13;;
22026;SDS011;11177;50.966;10.070;2024-03-02T07:32:56;35.13;;;20.55;;
22026;SDS011;11177;50.966;10.070;2024-03-02T07:35:23;36.13;;;21.13;;
22026;SDS011;11177;50.966;10.070;2024-03-02T07:37:54;36.38;;;20.05;;
22026;SDS011;11177;50.966;10.070;2024-03-02T07:40:25;36.42;;;19.77;;
22026;SDS011;11177;50.966;10.070;2024-03-02T07:42:52;38.95;;;22.20;;
22026;SDS011;11177;50.966;10.070;2024-03-02T07:45:23;40.80;;;21.95;;
22026;SDS011;11177;50.966;10.070;2024-03-02T07:47:54;37.30;;;21.45;;
22026;SDS011;11177;50.966;10.070;2024-03-02T07:50:21;35.83;;;20.10;;
22026;SDS011;11177;50.966;10.070;2024-03-02T07:52:49;38.75;;;21.10;;
22026;SDS011;11177;50.966;10.070;2024-03-02T07:55:16;36.90;;;20.08;;
22026;SDS011;11177;50.966;10.070;2024-03-02T07:57:43;42.53;;;21.77;;
22026;SDS011;11177;50.966;10.070;2024-03-02T08:00:10;43.47;;;21.67;;
22026;SDS011;11177;50.966;10.070;2024-03-02T08:02:38;39.17;;;20.75;;
22026;SDS011;11177;50.966;10.070;2024-03-02T08:05:06;38.58;;;21.05;;
22026;SDS011;11177;50.966;10.070;2024-03-02T08:07:34;38.55;;;21.05;;
22026;SDS011;11177;50.966;10.070;2024-03-02T08:10:01;42.63;;;22.40;;
22026;SDS011;11177;50.966;10.070;2024-03-02T08:12:28;40.25;;;21.50;;
22026;SDS011;11177;50.966;10.070;2024-03-02T08:14:55;45.80;;;22.63;;
22026;SDS011;11177;50.966;10.070;2024-03-02T08:17:23;39.83;;;23.05;;
22026;SDS011;11177;50.966;10.070;2024-03-02T08:19:50;41.67;;;23.25;;
22026;SDS011;11177;50.966;10.070;2024-03-02T08:22:21;41.80;;;22.95;;
22026;SDS011;11177;50.966;10.070;2024-03-02T08:24:48;43.00;;;24.00;;
22026;SDS011;11177;50.966;10.070;2024-03-02T08:27:15;46.97;;;25.13;;
22026;SDS011;11177;50.966;10.070;2024-03-02T08:29:42;43.45;;;24.05;;
22026;SDS011;11177;50.966;10.070;2024-03-02T08:32:13;44.92;;;24.55;;
22026;SDS011;11177;50.966;10.070;2024-03-02T08:34:41;45.28;;;24.73;;
22026;SDS011;11177;50.966;10.070;2024-03-02T08:37:09;45.38;;;25.13;;
22026;SDS011;11177;50.966;10.070;2024-03-02T08:39:36;44.03;;;24.75;;
22026;SDS011;11177;50.966;10.070;2024-03-02T08:42:03;42.05;;;23.90;;
22026;SDS011;11177;50.966;10.070;2024-03-02T08:44:31;43.67;;;24.65;;
22026;SDS011;11177;50.966;10.070;2024-03-02T08:46:59;46.50;;;25.48;;
22026;SDS011;11177;50.966;10.070;2024-03-02T08:49:26;49.97;;;25.13;;
22026;SDS011;11177;50.966;10.070;2024-03-02T08:51:53;47.97;;;25.92;;
22026;SDS011;11177;50.966;10.070;2024-03-02T08:54:23;42.05;;;24.77;;
22026;SDS011;11177;50.966;10.070;2024-03-02T08:56:50;42.17;;;22.10;;
22026;SDS011;11177;50.966;10.070;2024-03-02T08:59:17;38.65;;;20.02;;
22026;SDS011;11177;50.966;10.070;2024-03-02T09:01:44;36.63;;;20.08;;
22026;SDS011;11177;50.966;10.070;2024-03-02T09:04:14;33.25;;;19.63;;
22026;SDS011;11177;50.966;10.070;2024-03-02T09:06:41;35.72;;;19.75;;
22026;SDS011;11177;50.966;10.070;2024-03-02T09:09:08;37.67;;;20.65;;
22026;SDS011;11177;50.966;10.070;2024-03-02T09:11:35;39.25;;;21.48;;
22026;SDS011;11177;50.966;10.070;2024-03-02T09:14:02;39.33;;;21.55;;
22026;SDS011;11177;50.966;10.070;2024-03-02T09:16:29;34.45;;;18.75;;
22026;SDS011;11177;50.966;10.070;2024-03-02T09:18:57;30.77;;;17.65;;
22026;SDS011;11177;50.966;10.070;2024-03-02T09:21:24;30.73;;;18.00;;
22026;SDS011;11177;50.966;10.070;2024-03-02T09:23:52;34.60;;;18.05;;
22026;SDS011;11177;50.966;10.070;2024-03-02T09:26:19;30.88;;;17.25;;
22026;SDS011;11177;50.966;10.070;2024-03-02T09:28:51;32.42;;;17.77;;
22026;SDS011;11177;50.966;10.070;2024-03-02T09:31:22;29.40;;;17.52;;
22026;SDS011;11177;50.966;10.070;2024-03-02T09:33:49;30.08;;;17.60;;
22026;SDS011;11177;50.966;10.070;2024-03-02T09:36:20;28.30;;;16.90;;
22026;SDS011;11177;50.966;10.070;2024-03-02T09:38:47;29.75;;;17.83;;
22026;SDS011;11177;50.966;10.070;2024-03-02T09:41:15;28.33;;;16.10;;
22026;SDS011;11177;50.966;10.070;2024-03-02T09:43:42;26.00;;;16.00;;
22026;SDS011;11177;50.966;10.070;2024-03-02T09:46:18;25.20;;;15.18;;
22026;SDS011;11177;50.966;10.070;2024-03-02T09:49:10;28.08;;;16.17;;
22026;SDS011;11177;50.966;10.070;2024-03-02T09:51:38;25.95;;;15.25;;
22026;SDS011;11177;50.966;10.070;2024-03-02T09:54:18;26.10;;;14.60;;
22026;SDS011;11177;50.966;10.070;2024-03-02T09:56:49;27.13;;;15.48;;
22026;SDS011;11177;50.966;10.070;2024-03-02T09:59:24;24.77;;;15.13;;
22026;SDS011;11177;50.966;10.070;2024-03-02T10:01:58;24.23;;;14.32;;
22026;SDS011;11177;50.966;10.070;2024-03-02T10:04:29;31.02;;;15.65;;
22026;SDS011;11177;50.966;10.070;2024-03-02T10:10:15;25.67;;;15.13;;
22026;SDS011;11177;50.966;10.070;2024-03-02T10:12:42;26.17;;;15.70;;
22026;SDS011;11177;50.966;10.070;2024-03-02T10:15:09;24.00;;;14.70;;
22026;SDS011;11177;50.966;10.070;2024-03-02T10:17:41;22.35;;;13.63;;
22026;SDS011;11177;50.966;10.070;2024-03-02T10:20:21;21.92;;;13.82;;
22026;SDS011;11177;50.966;10.070;2024-03-02T10:22:50;21.83;;;13.63;;
22026;SDS011;11177;50.966;10.070;2024-03-02T10:28:16;21.65;;;13.05;;
22026;SDS011;11177;50.966;10.070;2024-03-02T10:30:43;25.15;;;14.65;;
22026;SDS011;11177;50.966;10.070;2024-03-02T10:33:14;23.00;;;13.90;;
22026;SDS011;11177;50.966;10.070;2024-03-02T10:35:41;21.48;;;13.73;;
22026;SDS011;11177;50.966;10.070;2024-03-02T10:38:08;22.27;;;12.90;;
22026;SDS011;11177;50.966;10.070;2024-03-02T10:40:38;20.38;;;12.90;;
22026;SDS011;11177;50.966;10.070;2024-03-02T10:43:05;19.02;;;11.93;;
22026;SDS011;11177;50.966;10.070;2024-03-02T10:45:35;19.58;;;12.32;;
22026;SDS011;11177;50.966;10.070;2024-03-02T10:48:03;18.20;;;12.23;;
22026;SDS011;11177;50.966;10.070;2024-03-02T10:50:35;20.42;;;13.27;;
22026;SDS011;11177;50.966;10.070;2024-03-02T10:53:02;20.92;;;13.27;;
22026;SDS011;11177;50.966;10.070;2024-03-02T10:55:31;19.63;;;12.77;;
22026;SDS011;11177;50.966;10.070;2024-03-02T10:57:58;18.85;;;12.65;;
22026;SDS011;11177;50.966;10.070;2024-03-02T11:00:30;22.10;;;13.07;;
22026;SDS011;11177;50.966;10.070;2024-03-02T11:03:07;20.15;;;13.55;;
22026;SDS011;11177;50.966;10.070;2024-03-02T11:05:38;22.23;;;13.55;;
22026;SDS011;11177;50.966;10.070;2024-03-02T11:08:07;19.77;;;12.05;;
22026;SDS011;11177;50.966;10.070;2024-03-02T11:10:40;17.75;;;12.00;;
22026;SDS011;11177;50.966;10.070;2024-03-02T11:13:09;20.60;;;12.77;;
22026;SDS011;11177;50.966;10.070;2024-03-02T11:15:40;19.30;;;13.15;;
22026;SDS011;11177;50.966;10.070;2024-03-02T11:18:07;22.15;;;13.60;;
22026;SDS011;11177;50.966;10.070;2024-03-02T11:20:41;18.63;;;12.68;;
22026;SDS011;11177;50.966;10.070;2024-03-02T11:25:36;18.05;;;11.27;;
22026;SDS011;11177;50.966;10.070;2024-03-02T11:28:06;19.85;;;11.85;;
22026;SDS011;11177;50.966;10.070;2024-03-02T11:30:48;16.80;;;10.98;;
22026;SDS011;11177;50.966;10.070;2024-03-02T11:33:16;17.00;;;11.23;;
22026;SDS011;11177;50.966;10.070;2024-03-02T11:35:50;20.02;;;11.52;;
22026;SDS011;11177;50.966;10.070;2024-03-02T11:38:20;18.30;;;11.82;;
22026;SDS011;11177;50.966;10.070;2024-03-02T11:40:47;17.40;;;11.70;;
22026;SDS011;11177;50.966;10.070;2024-03-02T11:43:14;16.27;;;10.82;;
22026;SDS011;11177;50.966;10.070;2024-03-02T11:45:42;18.70;;;11.50;;
22026;SDS011;11177;50.966;10.070;2024-03-02T11:48:13;17.08;;;10.68;;
22026;SDS011;11177;50.966;10.070;2024-03-02T11:50:47;17.23;;;11.48;;
22026;SDS011;11177;50.966;10.070;2024-03-02T11:53:16;19.90;;;11.60;;
22026;SDS011;11177;50.966;10.070;2024-03-02T11:55:45;16.85;;;10.27;;
22026;SDS011;11177;50.966;10.070;2024-03-02T11:58:15;14.38;;;9.35;;
22026;SDS011;11177;50.966;10.070;2024-03-02T12:00:44;14.38;;;9.93;;
22026;SDS011;11177;50.966;10.070;2024-03-02T12:03:14;21.45;;;14.73;;
22026;SDS011;11177;50.966;10.070;2024-03-02T12:05:42;14.63;;;10.10;;
22026;SDS011;11177;50.966;10.070;2024-03-02T12:08:09;20.42;;;12.82;;
22026;SDS011;11177;50.966;10.070;2024-03-02T12:10:36;14.57;;;9.50;;
22026;SDS011;11177;50.966;10.070;2024-03-02T12:13:11;15.00;;;9.43;;
22026;SDS011;11177;50.966;10.070;2024-03-02T12:18:38;16.52;;;9.85;;
22026;SDS011;11177;50.966;10.070;2024-03-02T12:21:15;14.90;;;8.43;;
22026;SDS011;11177;50.966;10.070;2024-03-02T12:23:42;12.68;;;8.55;;
22026;SDS011;11177;50.966;10.070;2024-03-02T12:26:10;13.27;;;9.13;;
22026;SDS011;11177;50.966;10.070;2024-03-02T12:28:37;14.00;;;8.85;;
22026;SDS011;11177;50.966;10.070;2024-03-02T12:31:05;14.52;;;9.45;;
22026;SDS011;11177;50.966;10.070;2024-03-02T12:33:32;21.75;;;13.98;;
22026;SDS011;11177;50.966;10.070;2024-03-02T12:36:00;12.60;;;8.85;;
22026;SDS011;11177;50.966;10.070;2024-03-02T12:38:30;14.52;;;7.93;;
22026;SDS011;11177;50.966;10.070;2024-03-02T12:40:57;11.50;;;7.85;;
22026;SDS011;11177;50.966;10.070;2024-03-02T12:43:29;9.98;;;6.57;;
22026;SDS011;11177;50.966;10.070;2024-03-02T12:45:58;9.95;;;7.07;;
22026;SDS011;11177;50.966;10.070;2024-03-02T12:48:25;9.35;;;6.80;;
22026;SDS011;11177;50.966;10.070;2024-03-02T12:50:53;11.82;;;7.30;;
22026;SDS011;11177;50.966;10.070;2024-03-02T12:53:19;14.88;;;7.68;;
22026;SDS011;11177;50.966;10.070;2024-03-02T12:55:48;9.43;;;7.00;;
22026;SDS011;11177;50.966;10.070;2024-03-02T12:58:19;11.32;;;7.60;;
22026;SDS011;11177;50.966;10.070;2024-03-02T13:03:23;12.60;;;7.50;;
22026;SDS011;11177;50.966;10.070;2024-03-02T13:05:50;15.17;;;9.57;;
22026;SDS011;11177;50.966;10.070;2024-03-02T13:08:17;7.57;;;6.00;;
22026;SDS011;11177;50.966;10.070;2024-03-02T13:10:45;9.80;;;6.50;;
22026;SDS011;11177;50.966;10.070;2024-03-02T13:13:16;11.68;;;6.50;;
22026;SDS011;11177;50.966;10.070;2024-03-02T13:15:44;9.93;;;6.45;;
22026;SDS011;11177;50.966;10.070;2024-03-02T13:18:11;10.75;;;6.18;;
22026;SDS011;11177;50.966;10.070;2024-03-02T13:20:40;9.55;;;6.75;;
22026;SDS011;11177;50.966;10.070;2024-03-02T13:23:07;8.77;;;6.47;;
22026;SDS011;11177;50.966;10.070;2024-03-02T13:25:34;8.80;;;6.22;;
22026;SDS011;11177;50.966;10.070;2024-03-02T13:28:01;9.57;;;6.70;;
22026;SDS011;11177;50.966;10.070;2024-03-02T13:30:29;9.43;;;6.38;;
22026;SDS011;11177;50.966;10.070;2024-03-02T13:32:56;7.80;;;5.70;;
22026;SDS011;11177;50.966;10.070;2024-03-02T13:35:23;9.13;;;5.80;;
22026;SDS011;11177;50.966;10.070;2024-03-02T13:37:54;8.93;;;6.30;;
22026;SDS011;11177;50.966;10.070;2024-03-02T13:40:21;10.07;;;6.90;;
22026;SDS011;11177;50.966;10.070;2024-03-02T13:42:54;11.80;;;7.95;;
22026;SDS011;11177;50.966;10.070;2024-03-02T13:45:21;9.82;;;7.07;;
22026;SDS011;11177;50.966;10.070;2024-03-02T13:47:48;11.60;;;7.63;;
22026;SDS011;11177;50.966;10.070;2024-03-02T13:50:15;9.18;;;6.65;;
22026;SDS011;11177;50.966;10.070;2024-03-02T13:52:42;10.02;;;7.10;;
22026;SDS011;11177;50.966;10.070;2024-03-02T13:55:09;10.55;;;7.68;;
22026;SDS011;11177;50.966;10.070;2024-03-02T13:57:36;13.98;;;8.82;;
22026;SDS011;11177;50.966;10.070;2024-03-02T14:00:04;10.43;;;7.78;;
22026;SDS011;11177;50.966;10.070;2024-03-02T14:02:37;11.07;;;7.90;;
22026;SDS011;11177;50.966;10.070;2024-03-02T14:05:04;10.70;;;7.90;;
22026;SDS011;11177;50.966;10.070;2024-03-02T14:07:31;12.10;;;7.20;;
22026;SDS011;11177;50.966;10.070;2024-03-02T14:09:59;9.93;;;6.88;;
22026;SDS011;11177;50.966;10.070;2024-03-02T14:12:26;10.00;;;7.22;;
22026;SDS011;11177;50.966;10.070;2024-03-02T14:14:52;10.05;;;5.85;;
22026;SDS011;11177;50.966;10.070;2024-03-02T14:17:22;9.15;;;5.65;;
22026;SDS011;11177;50.966;10.070;2024-03-02T14:19:49;8.05;;;5.72;;
22026;SDS011;11177;50.966;10.070;2024-03-02T14:22:16;8.90;;;6.15;;
22026;SDS011;11177;50.966;10.070;2024-03-02T14:24:46;10.05;;;7.07;;
22026;SDS011;11177;50.966;10.070;2024-03-02T14:27:15;10.55;;;7.28;;
22026;SDS011;11177;50.966;10.070;2024-03-02T14:30:03;9.32;;;6.35;;
22026;SDS011;11177;50.966;10.070;2024-03-02T14:32:32;8.80;;;6.05;;
22026;SDS011;11177;50.966;10.070;2024-03-02T14:34:59;8.80;;;5.80;;
22026;SDS011;11177;50.966;10.070;2024-03-02T14:37:29;9.38;;;5.97;;